createdAt,value
2022-11-05T00:02:27.451Z,10.93
2022-11-05T00:05:14.090Z,11.30
2022-11-05T00:08:01.514Z,10.18
2022-11-05T00:10:32.358Z,11.27
2022-11-05T00:13:18.253Z,10.52
2022-11-05T00:16:03.555Z,10.43
2022-11-05T00:18:31.675Z,10.02
2022-11-05T00:21:00.775Z,10.25
2022-11-05T00:23:46.650Z,9.10
2022-11-05T00:26:14.567Z,9.75
2022-11-05T00:28:43.852Z,9.38
2022-11-05T00:31:14.498Z,9.18
2022-11-05T00:33:43.910Z,9.60
2022-11-05T00:38:40.601Z,9.07
2022-11-05T00:41:08.817Z,9.40
2022-11-05T00:43:53.976Z,9.40
2022-11-05T00:46:21.714Z,9.35
2022-11-05T00:49:07.197Z,8.85
2022-11-05T00:51:36.292Z,8.55
2022-11-05T00:54:04.071Z,9.38
2022-11-05T00:56:31.884Z,10.15
2022-11-05T00:58:59.645Z,9.20
2022-11-05T01:01:27.439Z,9.30
2022-11-05T01:03:55.242Z,10.10
2022-11-05T01:06:23.036Z,10.07
2022-11-05T01:08:52.109Z,10.48
2022-11-05T01:11:33.968Z,9.63
2022-11-05T01:14:02.274Z,10.57
2022-11-05T01:16:30.838Z,10.73
2022-11-05T01:18:58.621Z,9.23
2022-11-05T01:21:26.343Z,9.25
2022-11-05T01:23:55.727Z,9.68
2022-11-05T01:28:52.139Z,8.68
2022-11-05T01:31:20.046Z,9.38
2022-11-05T01:33:47.862Z,11.13
2022-11-05T01:36:15.654Z,9.30
2022-11-05T01:38:43.427Z,7.95
2022-11-05T01:41:12.535Z,9.15
2022-11-05T01:43:49.346Z,8.63
2022-11-05T01:46:20.845Z,7.93
2022-11-05T01:48:52.245Z,7.63
2022-11-05T01:51:25.267Z,7.15
2022-11-05T01:54:00.590Z,7.75
2022-11-05T01:56:35.357Z,6.93
2022-11-05T01:59:07.649Z,7.28
2022-11-05T02:01:35.680Z,6.85
2022-11-05T02:04:08.210Z,7.03
2022-11-05T02:06:39.266Z,6.82
2022-11-05T02:09:11.145Z,6.55
2022-11-05T02:11:40.324Z,6.57
2022-11-05T02:14:08.127Z,6.72
2022-11-05T02:16:41.266Z,7.38
2022-11-05T02:19:36.663Z,7.22
2022-11-05T02:22:22.497Z,7.53
2022-11-05T02:25:02.290Z,8.57
2022-11-05T02:27:57.802Z,7.70
2022-11-05T02:30:37.630Z,6.95
2022-11-05T02:33:14.845Z,9.57
2022-11-05T02:36:01.423Z,8.20
2022-11-05T02:38:38.855Z,9.95
2022-11-05T02:41:14.850Z,10.38
2022-11-05T02:43:52.237Z,10.23
2022-11-05T02:46:30.692Z,10.68
2022-11-05T02:49:06.875Z,10.43
2022-11-05T02:51:40.096Z,10.13
2022-11-05T02:54:13.019Z,10.25
2022-11-05T02:56:43.385Z,10.05
2022-11-05T02:59:11.123Z,10.68
2022-11-05T03:01:43.234Z,11.10
2022-11-05T03:04:13.449Z,11.77
2022-11-05T03:06:56.985Z,10.52
2022-11-05T03:09:46.698Z,11.10
2022-11-05T03:12:27.689Z,9.98
2022-11-05T03:15:03.986Z,11.68
2022-11-05T03:17:39.853Z,11.23
2022-11-05T03:20:17.541Z,10.70
2022-11-05T03:22:51.727Z,9.32
2022-11-05T03:25:23.652Z,10.27
2022-11-05T03:27:56.785Z,9.65
2022-11-05T03:30:25.396Z,8.65
2022-11-05T03:32:59.239Z,8.35
2022-11-05T03:35:29.736Z,8.90
2022-11-05T03:38:02.025Z,9.07
2022-11-05T03:40:34.411Z,9.40
2022-11-05T03:43:04.803Z,9.20
2022-11-05T03:45:37.710Z,8.77
2022-11-05T03:48:10.406Z,9.02
2022-11-05T03:50:41.791Z,9.20
2022-11-05T03:53:16.949Z,8.38
2022-11-05T03:55:51.345Z,8.20
2022-11-05T03:58:20.845Z,9.05
2022-11-05T04:00:49.879Z,8.27
2022-11-05T04:03:18.985Z,8.45
2022-11-05T04:06:07.303Z,8.05
2022-11-05T04:08:52.519Z,7.13
2022-11-05T04:11:38.092Z,7.35
2022-11-05T04:14:05.816Z,6.97
2022-11-05T04:16:51.305Z,6.53
2022-11-05T04:19:41.482Z,6.43
2022-11-05T04:22:26.900Z,7.30
2022-11-05T04:24:54.649Z,7.38
2022-11-05T04:27:22.402Z,8.30
2022-11-05T04:30:07.896Z,7.10
2022-11-05T04:32:35.667Z,6.25
2022-11-05T04:35:04.971Z,6.72
2022-11-05T04:40:00.261Z,6.47
2022-11-05T04:42:29.268Z,6.32
2022-11-05T04:44:57.016Z,7.35
2022-11-05T04:47:24.718Z,6.35
2022-11-05T04:49:53.206Z,7.25
2022-11-05T04:52:22.332Z,7.97
2022-11-05T04:54:50.070Z,6.90
2022-11-05T04:57:17.815Z,7.15
2022-11-05T04:59:45.541Z,6.60
2022-11-05T05:02:13.362Z,7.07
2022-11-05T05:04:41.157Z,7.32
2022-11-05T05:07:08.894Z,7.43
2022-11-05T05:09:38.023Z,6.63
2022-11-05T05:12:06.262Z,6.85
2022-11-05T05:14:34.033Z,6.95
2022-11-05T05:17:01.764Z,7.30
2022-11-05T05:19:30.702Z,8.50
2022-11-05T05:21:57.445Z,7.85
2022-11-05T05:24:25.446Z,7.45
2022-11-05T05:26:54.545Z,7.28
2022-11-05T05:29:22.276Z,7.75
2022-11-05T05:31:50.022Z,7.60
2022-11-05T05:34:17.790Z,8.07
2022-11-05T05:36:45.497Z,7.90
2022-11-05T05:39:14.223Z,7.35
2022-11-05T05:41:42.040Z,7.57
2022-11-05T05:44:11.149Z,8.30
2022-11-05T05:46:39.024Z,8.52
2022-11-05T05:49:12.139Z,7.90
2022-11-05T05:51:40.314Z,8.35
2022-11-05T05:54:08.089Z,7.43
2022-11-05T05:56:35.820Z,7.38
2022-11-05T05:59:03.657Z,7.38
2022-11-05T06:01:32.760Z,7.38
2022-11-05T06:04:00.573Z,7.20
2022-11-05T06:06:28.481Z,6.80
2022-11-05T06:08:56.985Z,7.97
2022-11-05T06:11:25.314Z,7.20
2022-11-05T06:13:53.126Z,7.03
2022-11-05T06:16:21.015Z,6.55
2022-11-05T06:18:50.467Z,7.90
2022-11-05T06:21:19.203Z,7.05
2022-11-05T06:23:48.281Z,7.28
2022-11-05T06:26:18.488Z,6.72
2022-11-05T06:28:46.693Z,7.60
2022-11-05T06:31:15.913Z,8.02
2022-11-05T06:33:43.717Z,6.50
2022-11-05T06:36:15.856Z,5.70
2022-11-05T06:38:43.661Z,6.90
2022-11-05T06:41:11.616Z,6.70
2022-11-05T06:43:39.821Z,5.75
2022-11-05T06:46:07.978Z,7.82
2022-11-05T06:48:36.231Z,6.70
2022-11-05T06:51:04.681Z,6.82
2022-11-05T06:53:34.313Z,6.43
2022-11-05T06:56:05.492Z,6.82
2022-11-05T06:58:33.867Z,6.97
2022-11-05T07:01:02.909Z,7.07
2022-11-05T07:03:31.100Z,6.95
2022-11-05T07:06:00.638Z,6.63
2022-11-05T07:08:28.925Z,5.95
2022-11-05T07:10:58.053Z,5.85
2022-11-05T07:13:25.796Z,6.05
2022-11-05T07:15:53.589Z,6.25
2022-11-05T07:18:21.377Z,6.03
2022-11-05T07:20:49.227Z,6.03
2022-11-05T07:23:17.557Z,5.68
2022-11-05T07:25:45.354Z,5.93
2022-11-05T07:28:15.027Z,5.00
2022-11-05T07:30:42.810Z,5.43
2022-11-05T07:33:10.830Z,5.00
2022-11-05T07:35:38.734Z,5.80
2022-11-05T07:38:06.456Z,5.13
2022-11-05T07:40:34.223Z,5.15
2022-11-05T07:43:02.875Z,4.32
2022-11-05T07:45:32.666Z,4.63
2022-11-05T07:48:02.100Z,4.28
2022-11-05T07:50:32.636Z,4.47
2022-11-05T07:53:01.480Z,5.35
2022-11-05T07:55:29.562Z,5.35
2022-11-05T07:57:57.567Z,5.60
2022-11-05T08:00:26.847Z,5.25
2022-11-05T08:03:09.375Z,5.30
2022-11-05T08:05:39.596Z,5.47
2022-11-05T08:08:08.775Z,5.93
2022-11-05T08:13:04.636Z,5.72
2022-11-05T08:15:32.661Z,5.05
2022-11-05T08:18:03.125Z,4.88
2022-11-05T08:20:31.606Z,6.38
2022-11-05T08:22:59.657Z,5.10
2022-11-05T08:25:28.418Z,4.72
2022-11-05T08:27:57.334Z,4.53
2022-11-05T08:30:25.604Z,4.55
2022-11-05T08:32:57.618Z,4.57
2022-11-05T08:35:27.010Z,4.20
2022-11-05T08:37:58.625Z,4.30
2022-11-05T08:40:26.904Z,4.70
2022-11-05T08:42:57.684Z,5.03
2022-11-05T08:45:25.973Z,4.90
2022-11-05T08:47:59.764Z,4.70
2022-11-05T08:50:28.905Z,5.13
2022-11-05T08:55:24.545Z,4.75
2022-11-05T08:57:56.214Z,5.25
2022-11-05T09:00:24.107Z,4.40
2022-11-05T09:02:51.910Z,4.88
2022-11-05T09:05:19.706Z,4.70
2022-11-05T09:07:48.786Z,4.65
2022-11-05T09:10:16.648Z,4.57
2022-11-05T09:12:44.953Z,5.20
2022-11-05T09:15:12.745Z,5.07
2022-11-05T09:17:41.297Z,4.70
2022-11-05T09:20:12.170Z,5.03
2022-11-05T09:22:43.288Z,5.30
2022-11-05T09:25:12.870Z,4.00
2022-11-05T09:27:40.648Z,4.70
2022-11-05T09:30:10.604Z,5.07
2022-11-05T09:32:38.387Z,4.15
2022-11-05T09:35:06.900Z,4.22
2022-11-05T09:37:34.962Z,4.75
2022-11-05T09:40:02.776Z,4.70
2022-11-05T09:42:37.786Z,5.40
2022-11-05T09:45:11.026Z,4.45
2022-11-05T09:47:43.713Z,4.10
2022-11-05T09:50:17.130Z,4.68
2022-11-05T09:52:45.205Z,5.55
2022-11-05T09:55:21.974Z,4.65
2022-11-05T09:57:55.517Z,5.47
2022-11-05T10:00:23.771Z,4.85
2022-11-05T10:02:56.436Z,4.60
2022-11-05T10:05:26.458Z,5.40
2022-11-05T10:07:58.779Z,5.00
2022-11-05T10:10:39.404Z,4.80
2022-11-05T10:13:15.919Z,5.38
2022-11-05T10:15:52.935Z,4.82
2022-11-05T10:18:25.662Z,4.78
2022-11-05T10:20:53.491Z,4.85
2022-11-05T10:23:23.230Z,5.15
2022-11-05T10:25:55.047Z,5.00
2022-11-05T10:28:27.411Z,5.43
2022-11-05T10:30:59.561Z,4.68
2022-11-05T10:33:31.971Z,4.72
2022-11-05T10:36:05.107Z,4.97
2022-11-05T10:38:33.526Z,4.60
2022-11-05T10:41:15.286Z,4.70
2022-11-05T10:43:50.571Z,5.57
2022-11-05T10:46:32.470Z,4.95
2022-11-05T10:49:23.274Z,5.35
2022-11-05T10:51:56.569Z,4.38
2022-11-05T10:54:27.861Z,4.32
2022-11-05T10:56:55.643Z,4.20
2022-11-05T10:59:27.020Z,4.78
2022-11-05T11:02:00.682Z,5.10
2022-11-05T11:04:36.474Z,5.20
2022-11-05T11:07:05.971Z,5.53
2022-11-05T11:09:37.519Z,5.13
2022-11-05T11:12:08.373Z,5.30
2022-11-05T11:14:37.484Z,5.00
2022-11-05T11:17:26.719Z,4.22
2022-11-05T11:20:20.859Z,5.20
2022-11-05T11:23:01.250Z,4.75
2022-11-05T11:25:30.948Z,4.43
2022-11-05T11:28:03.734Z,4.45
2022-11-05T11:30:33.764Z,4.47
2022-11-05T11:33:12.336Z,3.83
2022-11-05T11:35:46.676Z,4.85
2022-11-05T11:38:16.845Z,4.25
2022-11-05T11:40:45.291Z,4.40
2022-11-05T11:43:24.823Z,4.77
2022-11-05T11:45:59.371Z,4.53
2022-11-05T11:48:31.327Z,13.20
2022-11-05T11:50:59.922Z,4.20
2022-11-05T11:53:30.928Z,8.63
2022-11-05T11:56:02.135Z,9.88
2022-11-05T11:58:38.945Z,4.50
2022-11-05T12:01:28.101Z,4.35
2022-11-05T12:06:34.335Z,3.30
2022-11-05T12:09:09.370Z,4.10
2022-11-05T12:11:44.753Z,3.47
2022-11-05T12:14:24.748Z,3.22
2022-11-05T12:17:07.771Z,3.30
2022-11-05T12:19:58.011Z,2.67
2022-11-05T12:22:36.502Z,2.40
2022-11-05T12:25:15.453Z,4.82
2022-11-05T12:28:02.203Z,2.80
2022-11-05T12:30:37.494Z,2.20
2022-11-05T12:33:18.157Z,3.53
2022-11-05T12:35:58.190Z,2.42
2022-11-05T12:38:39.406Z,2.30
2022-11-05T12:41:17.504Z,2.38
2022-11-05T12:43:57.748Z,2.33
2022-11-05T12:46:30.217Z,2.60
2022-11-05T12:49:30.785Z,5.13
2022-11-05T12:52:10.490Z,2.40
2022-11-05T12:54:54.191Z,2.13
2022-11-05T12:57:24.010Z,2.10
2022-11-05T12:59:56.612Z,2.55
2022-11-05T13:02:31.460Z,2.05
2022-11-05T13:05:04.644Z,2.45
2022-11-05T13:07:35.302Z,2.08
2022-11-05T13:10:09.115Z,2.38
2022-11-05T13:12:41.862Z,2.03
2022-11-05T13:15:19.548Z,1.60
2022-11-05T13:17:52.666Z,1.67
2022-11-05T13:20:24.935Z,1.75
2022-11-05T13:22:59.096Z,1.40
2022-11-05T13:25:29.724Z,1.45
2022-11-05T13:28:07.670Z,1.60
2022-11-05T13:30:38.314Z,1.50
2022-11-05T13:33:16.588Z,1.58
2022-11-05T13:35:49.552Z,1.85
2022-11-05T13:38:42.175Z,2.28
2022-11-05T13:41:26.124Z,1.67
2022-11-05T13:44:14.050Z,1.50
2022-11-05T13:46:58.676Z,2.00
2022-11-05T13:49:52.902Z,1.33
2022-11-05T13:52:39.073Z,1.50
2022-11-05T13:55:33.404Z,1.88
2022-11-05T13:58:17.218Z,1.55
2022-11-05T14:00:56.913Z,1.67
2022-11-05T14:03:24.991Z,1.65
2022-11-05T14:06:03.275Z,1.90
2022-11-05T14:08:38.578Z,2.33
2022-11-05T14:11:18.673Z,2.17
2022-11-05T14:13:50.811Z,1.88
2022-11-05T14:16:20.696Z,1.90
2022-11-05T14:18:53.944Z,1.52
2022-11-05T14:21:32.570Z,1.10
2022-11-05T14:24:23.794Z,1.45
2022-11-05T14:27:24.723Z,1.50
2022-11-05T14:29:52.491Z,1.30
2022-11-05T14:32:28.112Z,1.80
2022-11-05T14:35:01.673Z,2.50
2022-11-05T14:37:34.633Z,1.90
2022-11-05T14:40:27.052Z,2.15
2022-11-05T14:42:57.103Z,2.25
2022-11-05T14:45:30.180Z,1.85
2022-11-05T14:48:00.376Z,1.38
2022-11-05T14:50:36.644Z,1.55
2022-11-05T14:53:12.505Z,2.30
2022-11-05T14:55:44.595Z,2.25
2022-11-05T14:58:31.423Z,2.10
2022-11-05T15:01:00.317Z,1.88
2022-11-05T15:04:00.792Z,1.85
2022-11-05T15:06:31.709Z,2.00
2022-11-05T15:09:14.477Z,1.52
2022-11-05T15:11:49.670Z,1.70
2022-11-05T15:14:23.935Z,1.60
2022-11-05T15:16:54.240Z,2.08
2022-11-05T15:19:27.192Z,1.70
2022-11-05T15:21:58.683Z,2.42
2022-11-05T15:24:28.699Z,1.60
2022-11-05T15:27:05.457Z,1.52
2022-11-05T15:29:34.605Z,2.08
2022-11-05T15:32:02.923Z,1.75
2022-11-05T15:34:32.962Z,1.80
2022-11-05T15:37:02.563Z,2.20
2022-11-05T15:39:33.527Z,1.52
2022-11-05T15:42:07.203Z,2.55
2022-11-05T15:44:40.380Z,2.03
2022-11-05T15:47:14.236Z,2.15
2022-11-05T15:49:43.424Z,9.10
2022-11-05T15:52:16.213Z,1.92
2022-11-05T15:54:44.743Z,7.68
2022-11-05T15:57:31.930Z,2.45
2022-11-05T15:59:59.801Z,56.42
2022-11-05T16:02:32.078Z,24.67
2022-11-05T16:05:01.567Z,2.40
2022-11-05T16:07:30.070Z,2.30
2022-11-05T16:10:00.201Z,2.00
2022-11-05T16:12:38.197Z,2.10
2022-11-05T16:15:21.152Z,3.78
2022-11-05T16:17:54.505Z,3.25
2022-11-05T16:20:25.860Z,2.70
2022-11-05T16:22:56.596Z,5.30
2022-11-05T16:25:37.206Z,3.28
2022-11-05T16:28:18.397Z,2.25
2022-11-05T16:30:53.916Z,2.65
2022-11-05T16:33:21.887Z,2.67
2022-11-05T16:35:50.732Z,4.95
2022-11-05T16:38:19.697Z,2.70
2022-11-05T16:40:47.563Z,2.63
2022-11-05T16:43:20.661Z,3.17
2022-11-05T16:45:48.655Z,2.80
2022-11-05T16:48:17.478Z,2.92
2022-11-05T16:50:46.272Z,3.65
2022-11-05T16:53:14.096Z,3.75
2022-11-05T16:55:43.794Z,3.42
2022-11-05T16:58:21.453Z,4.28
2022-11-05T17:00:50.723Z,2.92
2022-11-05T17:03:18.791Z,3.35
2022-11-05T17:05:47.532Z,3.58
2022-11-05T17:08:15.535Z,3.05
2022-11-05T17:10:43.566Z,3.13
2022-11-05T17:13:15.219Z,3.80
2022-11-05T17:15:46.603Z,3.38
2022-11-05T17:18:18.553Z,6.10
2022-11-05T17:20:48.368Z,3.50
2022-11-05T17:25:47.523Z,3.17
2022-11-05T17:28:16.636Z,3.03
2022-11-05T17:33:22.626Z,3.15
2022-11-05T17:35:51.229Z,3.03
2022-11-05T17:38:19.745Z,3.20
2022-11-05T17:40:47.822Z,3.90
2022-11-05T17:43:16.343Z,4.93
2022-11-05T17:45:47.231Z,3.33
2022-11-05T17:48:15.606Z,3.65
2022-11-05T17:50:44.075Z,7.47
2022-11-05T17:53:13.023Z,18.93
2022-11-05T17:55:41.602Z,3.80
2022-11-05T17:58:09.745Z,3.70
2022-11-05T18:00:38.366Z,3.67
2022-11-05T18:03:07.743Z,4.18
2022-11-05T18:08:03.766Z,3.67
2022-11-05T18:10:31.590Z,3.60
2022-11-05T18:12:59.372Z,4.22
2022-11-05T18:15:27.305Z,4.18
2022-11-05T18:17:55.095Z,5.97
2022-11-05T18:20:24.342Z,5.50
2022-11-05T18:22:52.253Z,4.35
2022-11-05T18:25:20.184Z,4.68
2022-11-05T18:27:48.049Z,4.15
2022-11-05T18:30:16.011Z,3.55
2022-11-05T18:32:44.533Z,3.70
2022-11-05T18:35:13.197Z,3.72
2022-11-05T18:37:42.405Z,4.00
2022-11-05T18:40:11.794Z,3.97
2022-11-05T18:45:08.205Z,3.30
2022-11-05T18:47:35.999Z,3.88
2022-11-05T18:50:04.549Z,3.05
2022-11-05T18:52:33.085Z,3.28
2022-11-05T18:55:02.273Z,3.03
2022-11-05T18:57:30.236Z,2.95
2022-11-05T18:59:58.167Z,2.97
2022-11-05T19:02:26.252Z,2.70
2022-11-05T19:05:27.375Z,2.20
2022-11-05T19:07:41.993Z,2.42
2022-11-05T19:10:11.326Z,2.35
2022-11-05T19:15:08.079Z,2.40
2022-11-05T19:17:36.291Z,2.28
2022-11-05T19:20:05.160Z,2.70
2022-11-05T19:22:33.344Z,2.65
2022-11-05T19:25:01.173Z,2.50
2022-11-05T19:27:30.357Z,2.83
2022-11-05T19:29:58.136Z,2.78
2022-11-05T19:32:25.948Z,2.88
2022-11-05T19:34:53.731Z,2.60
2022-11-05T19:37:21.506Z,3.03
2022-11-05T19:39:49.361Z,2.25
2022-11-05T19:42:17.242Z,2.38
2022-11-05T19:44:46.402Z,2.65
2022-11-05T19:47:14.157Z,2.42
2022-11-05T19:49:41.948Z,2.33
2022-11-05T19:52:09.761Z,2.45
2022-11-05T19:54:38.407Z,2.65
2022-11-05T19:57:06.617Z,2.95
2022-11-05T19:59:34.406Z,2.30
2022-11-05T20:02:03.655Z,2.50
2022-11-05T20:06:59.461Z,3.95
2022-11-05T20:09:28.268Z,2.85
2022-11-05T20:11:57.006Z,2.83
2022-11-05T20:14:26.163Z,2.70
2022-11-05T20:16:54.677Z,2.63
2022-11-05T20:19:24.590Z,2.45
2022-11-05T20:21:52.812Z,2.35
2022-11-05T20:24:25.154Z,3.15
2022-11-05T20:26:54.308Z,2.83
2022-11-05T20:29:22.908Z,2.90
2022-11-05T20:31:51.206Z,2.80
2022-11-05T20:34:19.035Z,2.88
2022-11-05T20:36:48.175Z,2.55
2022-11-05T20:39:16.861Z,2.70
2022-11-05T20:41:44.913Z,2.97
2022-11-05T20:44:12.726Z,2.72
2022-11-05T20:46:40.509Z,2.40
2022-11-05T20:49:08.491Z,2.90
2022-11-05T20:51:36.328Z,2.63
2022-11-05T20:54:05.896Z,2.53
2022-11-05T20:56:35.773Z,2.70
2022-11-05T20:59:04.532Z,2.42
2022-11-05T21:01:34.554Z,4.25
2022-11-05T21:04:02.848Z,2.78
2022-11-05T21:06:30.910Z,3.65
2022-11-05T21:08:59.021Z,3.30
2022-11-05T21:11:28.170Z,2.72
2022-11-05T21:13:55.987Z,2.47
2022-11-05T21:16:24.221Z,2.67
2022-11-05T21:18:52.030Z,2.58
2022-11-05T21:21:21.415Z,2.42
2022-11-05T21:26:18.574Z,2.92
2022-11-05T21:31:15.374Z,2.90
2022-11-05T21:33:43.113Z,3.50
2022-11-05T21:36:12.771Z,2.40
2022-11-05T21:38:41.465Z,2.22
2022-11-05T21:41:11.465Z,3.05
2022-11-05T21:43:40.999Z,2.42
2022-11-05T21:46:12.166Z,2.60
2022-11-05T21:48:40.331Z,2.13
2022-11-05T21:51:25.727Z,2.30
2022-11-05T21:54:10.936Z,2.15
2022-11-05T21:56:56.588Z,2.45
2022-11-05T21:59:43.204Z,2.60
2022-11-05T22:02:14.366Z,2.40
2022-11-05T22:04:43.845Z,2.60
2022-11-05T22:09:40.349Z,3.95
2022-11-05T22:12:09.140Z,3.13
2022-11-05T22:14:36.962Z,2.85
2022-11-05T22:17:05.189Z,3.05
2022-11-05T22:19:34.780Z,2.47
2022-11-05T22:22:02.836Z,1.98
2022-11-05T22:24:31.903Z,2.60
2022-11-05T22:27:00.141Z,1.88
2022-11-05T22:29:28.570Z,2.50
2022-11-05T22:31:57.039Z,2.03
2022-11-05T22:34:25.348Z,2.20
2022-11-05T22:36:54.466Z,2.55
2022-11-05T22:39:23.013Z,2.10
2022-11-05T22:41:54.308Z,2.53
2022-11-05T22:44:22.192Z,2.13
2022-11-05T22:46:49.953Z,2.08
2022-11-05T22:49:17.786Z,2.08
2022-11-05T22:51:45.951Z,1.80
2022-11-05T22:54:15.039Z,1.95
2022-11-05T22:56:43.949Z,1.92
2022-11-05T22:59:13.917Z,1.85
2022-11-05T23:01:42.218Z,2.05
2022-11-05T23:04:10.091Z,2.10
2022-11-05T23:06:55.149Z,2.25
2022-11-05T23:09:43.326Z,2.35
2022-11-05T23:12:27.217Z,2.38
2022-11-05T23:14:56.754Z,1.70
2022-11-05T23:17:42.416Z,1.83
2022-11-05T23:20:32.418Z,1.88
2022-11-05T23:23:19.962Z,1.77
2022-11-05T23:25:49.493Z,1.95
2022-11-05T23:28:21.117Z,2.08
2022-11-05T23:31:06.287Z,1.98
2022-11-05T23:33:35.513Z,2.15
2022-11-05T23:36:20.976Z,1.90
2022-11-05T23:38:48.735Z,2.08
2022-11-05T23:41:35.053Z,1.65
2022-11-05T23:44:20.454Z,1.92
2022-11-05T23:47:05.799Z,1.63
2022-11-05T23:49:33.630Z,1.85
2022-11-05T23:52:01.379Z,1.80
2022-11-05T23:54:31.140Z,2.13
2022-11-05T23:57:00.263Z,1.52
2022-11-05T23:59:28.053Z,1.98
